Archival Weather

Chicago O'Hare International

Chicago, Illinois (KORD)

Report from: Saturday, March 18, 2023 9:12 AM CDT
Current time: Tuesday, July 16, 2024 4:57 AM CDT

Current weather – Weather history – Daily summaries
Weather forecast

Present weatherLight snow
Temperature-9.4°C (15.1°F)
Wind chill-18.1°C (-0.6°F)
Dew point-16.1°C (3.0°F)
Winds 14 kts (7.2 m/s, 16.1 mph) West (260°)
Wind gusts 22 kts (11.3 m/s, 25.3 mph)
Visibility4 mi. (6.4 km)
Clouds Scattered clouds 2,500 ft. (762 m)
Ceiling: Overcast 2,900 ft. (884 m)
Altimeter29.99 in.Hg (1016 mB)
PrecipitiationTrace
Precip. events Snow began 2:12 PM
Relative humidity58 %
Density altitude-3,094 ft. (-943 m)
Remarks Automated weather observing station with precipitation discriminator
Flight conditions Marginal Visual Meteorological Conditions
Raw dataKORD 181412Z 26014G22KT 4SM -SN SCT025 OVC029 M09/M16 A2999 RMK AO2 SNB12 P0000 T10941161
An error has occurred. This application may no longer respond until reloaded. Reload 🗙